sensor_id;sensor_type;location;lat;lon;timestamp;temperature;humidity
69382;DHT22;56560;50.692;12.844;2023-04-01T00:00:54;7.90;89.70
69382;DHT22;56560;50.692;12.844;2023-04-01T00:03:21;7.90;88.80
69382;DHT22;56560;50.692;12.844;2023-04-01T00:05:47;8.00;88.80
69382;DHT22;56560;50.692;12.844;2023-04-01T00:08:13;7.90;88.80
69382;DHT22;56560;50.692;12.844;2023-04-01T00:10:39;7.90;89.10
69382;DHT22;56560;50.692;12.844;2023-04-01T00:13:05;7.90;89.00
69382;DHT22;56560;50.692;12.844;2023-04-01T00:15:31;7.90;88.80
69382;DHT22;56560;50.692;12.844;2023-04-01T00:17:57;7.90;89.20
69382;DHT22;56560;50.692;12.844;2023-04-01T00:20:23;8.00;88.50
69382;DHT22;56560;50.692;12.844;2023-04-01T00:22:48;7.90;88.80
69382;DHT22;56560;50.692;12.844;2023-04-01T00:25:14;7.90;88.80
69382;DHT22;56560;50.692;12.844;2023-04-01T00:27:40;7.90;88.60
69382;DHT22;56560;50.692;12.844;2023-04-01T00:30:06;8.00;88.70
69382;DHT22;56560;50.692;12.844;2023-04-01T00:32:33;8.00;88.50
69382;DHT22;56560;50.692;12.844;2023-04-01T00:34:58;8.00;88.70
69382;DHT22;56560;50.692;12.844;2023-04-01T00:37:25;8.00;88.40
69382;DHT22;56560;50.692;12.844;2023-04-01T00:39:51;8.00;88.30
69382;DHT22;56560;50.692;12.844;2023-04-01T00:42:17;8.00;87.70
69382;DHT22;56560;50.692;12.844;2023-04-01T00:44:47;8.10;87.60
69382;DHT22;56560;50.692;12.844;2023-04-01T00:47:14;8.10;87.60
69382;DHT22;56560;50.692;12.844;2023-04-01T00:49:43;8.10;87.50
69382;DHT22;56560;50.692;12.844;2023-04-01T00:52:14;8.10;87.20
69382;DHT22;56560;50.692;12.844;2023-04-01T00:54:43;8.20;86.80
69382;DHT22;56560;50.692;12.844;2023-04-01T00:57:25;8.20;87.10
69382;DHT22;56560;50.692;12.844;2023-04-01T00:59:54;8.20;86.60
69382;DHT22;56560;50.692;12.844;2023-04-01T01:02:20;8.20;86.10
69382;DHT22;56560;50.692;12.844;2023-04-01T01:04:46;8.20;86.40
69382;DHT22;56560;50.692;12.844;2023-04-01T01:10:03;8.20;85.90
69382;DHT22;56560;50.692;12.844;2023-04-01T01:12:44;8.20;86.00
69382;DHT22;56560;50.692;12.844;2023-04-01T01:18:19;8.20;86.70
69382;DHT22;56560;50.692;12.844;2023-04-01T01:34:42;8.10;87.00
69382;DHT22;56560;50.692;12.844;2023-04-01T01:37:15;8.00;87.40
69382;DHT22;56560;50.692;12.844;2023-04-01T01:39:43;8.00;86.80
69382;DHT22;56560;50.692;12.844;2023-04-01T01:42:13;8.00;86.80
69382;DHT22;56560;50.692;12.844;2023-04-01T01:44:42;8.00;87.20
69382;DHT22;56560;50.692;12.844;2023-04-01T01:47:09;8.00;87.20
69382;DHT22;56560;50.692;12.844;2023-04-01T01:49:35;8.00;87.00
69382;DHT22;56560;50.692;12.844;2023-04-01T01:52:01;8.00;86.70
69382;DHT22;56560;50.692;12.844;2023-04-01T01:54:27;8.00;86.40
69382;DHT22;56560;50.692;12.844;2023-04-01T01:57:03;8.00;86.80
69382;DHT22;56560;50.692;12.844;2023-04-01T01:59:31;8.00;86.80
69382;DHT22;56560;50.692;12.844;2023-04-01T02:01:58;8.00;86.20
69382;DHT22;56560;50.692;12.844;2023-04-01T02:04:25;8.00;86.60
69382;DHT22;56560;50.692;12.844;2023-04-01T02:07:02;8.00;86.50
69382;DHT22;56560;50.692;12.844;2023-04-01T02:09:28;7.90;86.40
69382;DHT22;56560;50.692;12.844;2023-04-01T02:12:04;7.90;87.10
69382;DHT22;56560;50.692;12.844;2023-04-01T02:14:43;7.90;86.90
69382;DHT22;56560;50.692;12.844;2023-04-01T02:17:12;8.00;86.60
69382;DHT22;56560;50.692;12.844;2023-04-01T02:19:47;8.00;86.40
69382;DHT22;56560;50.692;12.844;2023-04-01T02:22:18;8.00;85.90
69382;DHT22;56560;50.692;12.844;2023-04-01T02:24:45;8.00;85.90
69382;DHT22;56560;50.692;12.844;2023-04-01T02:27:12;8.00;86.30
69382;DHT22;56560;50.692;12.844;2023-04-01T02:29:38;8.00;85.90
69382;DHT22;56560;50.692;12.844;2023-04-01T02:32:05;8.00;86.40
69382;DHT22;56560;50.692;12.844;2023-04-01T02:34:31;8.00;86.10
69382;DHT22;56560;50.692;12.844;2023-04-01T02:36:58;8.00;86.20
69382;DHT22;56560;50.692;12.844;2023-04-01T02:39:23;8.10;85.80
69382;DHT22;56560;50.692;12.844;2023-04-01T02:41:51;8.10;85.50
69382;DHT22;56560;50.692;12.844;2023-04-01T02:44:16;8.00;85.40
69382;DHT22;56560;50.692;12.844;2023-04-01T02:46:42;8.10;84.50
69382;DHT22;56560;50.692;12.844;2023-04-01T02:49:08;8.10;85.20
69382;DHT22;56560;50.692;12.844;2023-04-01T02:51:34;8.10;84.90
69382;DHT22;56560;50.692;12.844;2023-04-01T02:54:00;8.10;85.00
69382;DHT22;56560;50.692;12.844;2023-04-01T02:56:25;8.10;84.30
69382;DHT22;56560;50.692;12.844;2023-04-01T02:58:52;8.10;84.20
69382;DHT22;56560;50.692;12.844;2023-04-01T03:01:18;8.10;84.30
69382;DHT22;56560;50.692;12.844;2023-04-01T03:03:43;8.10;84.20
69382;DHT22;56560;50.692;12.844;2023-04-01T03:06:11;8.10;83.70
69382;DHT22;56560;50.692;12.844;2023-04-01T03:08:37;8.10;83.20
69382;DHT22;56560;50.692;12.844;2023-04-01T03:11:03;8.10;83.10
69382;DHT22;56560;50.692;12.844;2023-04-01T03:13:29;8.20;83.10
69382;DHT22;56560;50.692;12.844;2023-04-01T03:15:55;8.10;83.40
69382;DHT22;56560;50.692;12.844;2023-04-01T03:18:21;8.10;82.70
69382;DHT22;56560;50.692;12.844;2023-04-01T03:20:46;8.10;83.00
69382;DHT22;56560;50.692;12.844;2023-04-01T03:23:12;8.10;83.20
69382;DHT22;56560;50.692;12.844;2023-04-01T03:25:38;8.00;83.80
69382;DHT22;56560;50.692;12.844;2023-04-01T03:28:04;7.90;84.40
69382;DHT22;56560;50.692;12.844;2023-04-01T03:30:30;8.00;84.30
69382;DHT22;56560;50.692;12.844;2023-04-01T03:32:57;7.90;84.90
69382;DHT22;56560;50.692;12.844;2023-04-01T03:35:23;7.90;84.20
69382;DHT22;56560;50.692;12.844;2023-04-01T03:37:51;7.90;84.70
69382;DHT22;56560;50.692;12.844;2023-04-01T03:40:16;7.80;84.70
69382;DHT22;56560;50.692;12.844;2023-04-01T03:42:42;7.80;84.80
69382;DHT22;56560;50.692;12.844;2023-04-01T03:45:08;7.80;85.20
69382;DHT22;56560;50.692;12.844;2023-04-01T03:47:34;7.80;84.70
69382;DHT22;56560;50.692;12.844;2023-04-01T03:50:00;7.80;84.60
69382;DHT22;56560;50.692;12.844;2023-04-01T03:52:26;7.80;85.10
69382;DHT22;56560;50.692;12.844;2023-04-01T03:54:51;7.80;85.10
69382;DHT22;56560;50.692;12.844;2023-04-01T03:57:17;7.80;85.60
69382;DHT22;56560;50.692;12.844;2023-04-01T03:59:43;7.80;86.20
69382;DHT22;56560;50.692;12.844;2023-04-01T04:02:08;7.70;86.40
69382;DHT22;56560;50.692;12.844;2023-04-01T04:04:34;7.70;86.20
69382;DHT22;56560;50.692;12.844;2023-04-01T04:06:59;7.70;86.20
69382;DHT22;56560;50.692;12.844;2023-04-01T04:09:25;7.60;86.70
69382;DHT22;56560;50.692;12.844;2023-04-01T04:11:51;7.60;86.60
69382;DHT22;56560;50.692;12.844;2023-04-01T04:14:16;7.60;87.20
69382;DHT22;56560;50.692;12.844;2023-04-01T04:16:42;7.60;86.30
69382;DHT22;56560;50.692;12.844;2023-04-01T04:19:08;7.60;86.80
69382;DHT22;56560;50.692;12.844;2023-04-01T04:21:33;7.60;86.90
69382;DHT22;56560;50.692;12.844;2023-04-01T04:24:00;7.60;87.00
69382;DHT22;56560;50.692;12.844;2023-04-01T04:26:26;7.60;87.20
69382;DHT22;56560;50.692;12.844;2023-04-01T04:28:53;7.60;86.90
69382;DHT22;56560;50.692;12.844;2023-04-01T04:31:20;7.60;86.50
69382;DHT22;56560;50.692;12.844;2023-04-01T04:33:46;7.60;87.00
69382;DHT22;56560;50.692;12.844;2023-04-01T04:36:13;7.70;86.30
69382;DHT22;56560;50.692;12.844;2023-04-01T04:38:39;7.60;86.40
69382;DHT22;56560;50.692;12.844;2023-04-01T04:41:12;7.70;86.00
69382;DHT22;56560;50.692;12.844;2023-04-01T04:43:38;7.60;85.90
69382;DHT22;56560;50.692;12.844;2023-04-01T04:46:09;7.70;85.60
69382;DHT22;56560;50.692;12.844;2023-04-01T04:48:35;7.70;85.50
69382;DHT22;56560;50.692;12.844;2023-04-01T04:51:01;7.70;85.80
69382;DHT22;56560;50.692;12.844;2023-04-01T04:53:27;7.70;86.00
69382;DHT22;56560;50.692;12.844;2023-04-01T04:55:52;7.70;86.20
69382;DHT22;56560;50.692;12.844;2023-04-01T04:58:18;7.60;87.10
69382;DHT22;56560;50.692;12.844;2023-04-01T05:00:45;7.60;87.20
69382;DHT22;56560;50.692;12.844;2023-04-01T05:03:11;7.60;88.00
69382;DHT22;56560;50.692;12.844;2023-04-01T05:05:37;7.50;88.20
69382;DHT22;56560;50.692;12.844;2023-04-01T05:08:04;7.50;88.00
69382;DHT22;56560;50.692;12.844;2023-04-01T05:10:29;7.50;88.00
69382;DHT22;56560;50.692;12.844;2023-04-01T05:12:56;7.50;86.70
69382;DHT22;56560;50.692;12.844;2023-04-01T05:15:22;7.60;87.30
69382;DHT22;56560;50.692;12.844;2023-04-01T05:17:48;7.50;87.50
69382;DHT22;56560;50.692;12.844;2023-04-01T05:20:14;7.50;87.80
69382;DHT22;56560;50.692;12.844;2023-04-01T05:22:40;7.50;87.20
69382;DHT22;56560;50.692;12.844;2023-04-01T05:25:06;7.50;87.20
69382;DHT22;56560;50.692;12.844;2023-04-01T05:27:32;7.50;87.70
69382;DHT22;56560;50.692;12.844;2023-04-01T05:29:58;7.50;87.60
69382;DHT22;56560;50.692;12.844;2023-04-01T05:32:24;7.60;87.20
69382;DHT22;56560;50.692;12.844;2023-04-01T05:34:53;7.60;86.90
69382;DHT22;56560;50.692;12.844;2023-04-01T05:37:19;7.60;86.90
69382;DHT22;56560;50.692;12.844;2023-04-01T05:39:45;7.60;86.70
69382;DHT22;56560;50.692;12.844;2023-04-01T05:42:11;7.70;86.60
69382;DHT22;56560;50.692;12.844;2023-04-01T05:44:37;7.70;85.40
69382;DHT22;56560;50.692;12.844;2023-04-01T05:47:04;7.70;85.90
69382;DHT22;56560;50.692;12.844;2023-04-01T05:49:30;7.70;86.00
69382;DHT22;56560;50.692;12.844;2023-04-01T05:51:56;7.80;85.90
69382;DHT22;56560;50.692;12.844;2023-04-01T05:54:22;7.80;85.70
69382;DHT22;56560;50.692;12.844;2023-04-01T05:56:48;7.90;85.60
69382;DHT22;56560;50.692;12.844;2023-04-01T05:59:13;7.90;85.10
69382;DHT22;56560;50.692;12.844;2023-04-01T06:01:39;7.90;84.90
69382;DHT22;56560;50.692;12.844;2023-04-01T06:04:05;8.00;84.60
69382;DHT22;56560;50.692;12.844;2023-04-01T06:06:31;8.10;84.30
69382;DHT22;56560;50.692;12.844;2023-04-01T06:09:07;8.10;84.10
69382;DHT22;56560;50.692;12.844;2023-04-01T06:14:32;8.20;83.20
69382;DHT22;56560;50.692;12.844;2023-04-01T06:25:57;8.50;81.80
69382;DHT22;56560;50.692;12.844;2023-04-01T06:31:12;8.70;80.90
69382;DHT22;56560;50.692;12.844;2023-04-01T06:33:48;8.80;79.40
69382;DHT22;56560;50.692;12.844;2023-04-01T06:36:26;8.90;80.00
69382;DHT22;56560;50.692;12.844;2023-04-01T06:58:36;9.40;78.00
69382;DHT22;56560;50.692;12.844;2023-04-01T07:01:14;9.50;77.30
69382;DHT22;56560;50.692;12.844;2023-04-01T07:03:44;9.40;76.80
69382;DHT22;56560;50.692;12.844;2023-04-01T07:06:42;9.30;77.50
69382;DHT22;56560;50.692;12.844;2023-04-01T07:09:14;9.40;78.40
69382;DHT22;56560;50.692;12.844;2023-04-01T07:11:42;9.50;78.70
69382;DHT22;56560;50.692;12.844;2023-04-01T07:14:37;9.50;77.50
69382;DHT22;56560;50.692;12.844;2023-04-01T07:17:16;9.60;77.60
69382;DHT22;56560;50.692;12.844;2023-04-01T07:19:47;9.60;77.30
69382;DHT22;56560;50.692;12.844;2023-04-01T07:25:24;9.30;78.50
69382;DHT22;56560;50.692;12.844;2023-04-01T07:27:55;9.20;80.10
69382;DHT22;56560;50.692;12.844;2023-04-01T07:30:23;9.30;80.10
69382;DHT22;56560;50.692;12.844;2023-04-01T07:47:29;9.70;77.80
69382;DHT22;56560;50.692;12.844;2023-04-01T07:49:35;9.80;75.50
69382;DHT22;56560;50.692;12.844;2023-04-01T07:52:06;10.00;75.40
69382;DHT22;56560;50.692;12.844;2023-04-01T07:57:59;10.00;75.10
69382;DHT22;56560;50.692;12.844;2023-04-01T08:00:36;9.90;75.90
69382;DHT22;56560;50.692;12.844;2023-04-01T08:06:23;10.10;72.60
69382;DHT22;56560;50.692;12.844;2023-04-01T08:09:23;10.10;72.80
69382;DHT22;56560;50.692;12.844;2023-04-01T08:12:04;10.30;73.70
69382;DHT22;56560;50.692;12.844;2023-04-01T08:17:18;10.70;73.10
69382;DHT22;56560;50.692;12.844;2023-04-01T08:25:03;11.70;67.90
69382;DHT22;56560;50.692;12.844;2023-04-01T08:27:48;11.80;67.30
69382;DHT22;56560;50.692;12.844;2023-04-01T08:30:19;11.90;65.90
69382;DHT22;56560;50.692;12.844;2023-04-01T08:38:30;11.60;66.10
69382;DHT22;56560;50.692;12.844;2023-04-01T08:41:11;11.60;65.60
69382;DHT22;56560;50.692;12.844;2023-04-01T08:46:56;11.80;66.70
69382;DHT22;56560;50.692;12.844;2023-04-01T08:52:21;11.80;64.70
69382;DHT22;56560;50.692;12.844;2023-04-01T08:55:30;11.80;66.60
69382;DHT22;56560;50.692;12.844;2023-04-01T09:00:32;11.60;65.20
69382;DHT22;56560;50.692;12.844;2023-04-01T09:13:59;12.20;64.70
69382;DHT22;56560;50.692;12.844;2023-04-01T09:30:31;12.40;62.40
69382;DHT22;56560;50.692;12.844;2023-04-01T09:35:48;12.50;63.80
69382;DHT22;56560;50.692;12.844;2023-04-01T09:38:48;12.60;60.30
69382;DHT22;56560;50.692;12.844;2023-04-01T09:50:39;12.50;62.70
69382;DHT22;56560;50.692;12.844;2023-04-01T09:53:11;12.60;63.30
69382;DHT22;56560;50.692;12.844;2023-04-01T09:56:48;12.70;63.00
69382;DHT22;56560;50.692;12.844;2023-04-01T10:04:38;13.00;62.30
69382;DHT22;56560;50.692;12.844;2023-04-01T10:07:43;13.10;60.80
69382;DHT22;56560;50.692;12.844;2023-04-01T10:10:46;12.60;62.40
69382;DHT22;56560;50.692;12.844;2023-04-01T10:27:30;12.60;61.90
69382;DHT22;56560;50.692;12.844;2023-04-01T10:56:14;12.30;62.60
69382;DHT22;56560;50.692;12.844;2023-04-01T11:19:55;12.90;61.20
69382;DHT22;56560;50.692;12.844;2023-04-01T11:22:31;13.20;60.50
69382;DHT22;56560;50.692;12.844;2023-04-01T11:28:30;13.00;60.60
69382;DHT22;56560;50.692;12.844;2023-04-01T11:36:21;12.60;60.90
69382;DHT22;56560;50.692;12.844;2023-04-01T11:39:11;12.60;61.60
69382;DHT22;56560;50.692;12.844;2023-04-01T11:41:49;12.60;61.00
69382;DHT22;56560;50.692;12.844;2023-04-01T11:44:26;12.90;61.30
69382;DHT22;56560;50.692;12.844;2023-04-01T12:01:06;12.10;62.70
69382;DHT22;56560;50.692;12.844;2023-04-01T12:18:17;13.30;57.70
69382;DHT22;56560;50.692;12.844;2023-04-01T12:29:18;13.80;56.70
69382;DHT22;56560;50.692;12.844;2023-04-01T12:41:24;15.60;53.10
69382;DHT22;56560;50.692;12.844;2023-04-01T12:44:07;15.00;54.00
69382;DHT22;56560;50.692;12.844;2023-04-01T13:03:34;12.70;61.10
69382;DHT22;56560;50.692;12.844;2023-04-01T13:27:47;13.70;59.90
69382;DHT22;56560;50.692;12.844;2023-04-01T13:34:05;12.90;65.40
69382;DHT22;56560;50.692;12.844;2023-04-01T13:39:15;12.80;66.90
69382;DHT22;56560;50.692;12.844;2023-04-01T14:13:18;19.60;49.40
69382;DHT22;56560;50.692;12.844;2023-04-01T14:21:33;21.10;44.10
69382;DHT22;56560;50.692;12.844;2023-04-01T14:32:49;18.60;48.60
69382;DHT22;56560;50.692;12.844;2023-04-01T14:49:04;14.30;62.80
69382;DHT22;56560;50.692;12.844;2023-04-01T14:51:33;14.30;62.20
69382;DHT22;56560;50.692;12.844;2023-04-01T14:56:47;14.90;59.80
69382;DHT22;56560;50.692;12.844;2023-04-01T15:05:15;14.30;61.00
69382;DHT22;56560;50.692;12.844;2023-04-01T15:08:01;14.00;63.60
69382;DHT22;56560;50.692;12.844;2023-04-01T15:10:43;14.00;63.90
69382;DHT22;56560;50.692;12.844;2023-04-01T15:19:00;13.80;64.20
69382;DHT22;56560;50.692;12.844;2023-04-01T15:27:51;13.20;64.20
69382;DHT22;56560;50.692;12.844;2023-04-01T15:30:48;12.80;65.50
69382;DHT22;56560;50.692;12.844;2023-04-01T15:33:23;12.40;67.80
69382;DHT22;56560;50.692;12.844;2023-04-01T15:38:54;12.80;66.60
69382;DHT22;56560;50.692;12.844;2023-04-01T15:41:43;13.00;66.80
69382;DHT22;56560;50.692;12.844;2023-04-01T15:47:31;13.00;67.10
69382;DHT22;56560;50.692;12.844;2023-04-01T15:55:26;12.40;68.40
69382;DHT22;56560;50.692;12.844;2023-04-01T16:01:04;12.20;67.10
69382;DHT22;56560;50.692;12.844;2023-04-01T16:03:59;12.10;68.40
69382;DHT22;56560;50.692;12.844;2023-04-01T16:12:19;12.10;67.40
69382;DHT22;56560;50.692;12.844;2023-04-01T16:15:14;12.00;66.90
69382;DHT22;56560;50.692;12.844;2023-04-01T16:20:49;12.00;67.50
69382;DHT22;56560;50.692;12.844;2023-04-01T16:23:37;11.70;68.60
69382;DHT22;56560;50.692;12.844;2023-04-01T16:26:15;11.50;70.10
69382;DHT22;56560;50.692;12.844;2023-04-01T16:29:05;11.30;70.50
69382;DHT22;56560;50.692;12.844;2023-04-01T16:34:31;11.30;71.10
69382;DHT22;56560;50.692;12.844;2023-04-01T16:37:07;11.20;71.50
69382;DHT22;56560;50.692;12.844;2023-04-01T16:45:19;10.90;73.00
69382;DHT22;56560;50.692;12.844;2023-04-01T16:47:56;10.80;73.50
69382;DHT22;56560;50.692;12.844;2023-04-01T16:50:27;10.80;74.00
69382;DHT22;56560;50.692;12.844;2023-04-01T16:55:54;10.90;74.40
69382;DHT22;56560;50.692;12.844;2023-04-01T17:19:04;10.20;77.80
69382;DHT22;56560;50.692;12.844;2023-04-01T17:27:29;10.10;78.60
69382;DHT22;56560;50.692;12.844;2023-04-01T17:30:28;10.10;79.10
69382;DHT22;56560;50.692;12.844;2023-04-01T17:41:01;9.80;80.40
69382;DHT22;56560;50.692;12.844;2023-04-01T17:43:54;9.90;80.40
69382;DHT22;56560;50.692;12.844;2023-04-01T17:46:37;9.90;80.80
69382;DHT22;56560;50.692;12.844;2023-04-01T17:57:52;9.70;81.70
69382;DHT22;56560;50.692;12.844;2023-04-01T18:03:06;9.70;83.00
69382;DHT22;56560;50.692;12.844;2023-04-01T18:06:10;9.60;83.40
69382;DHT22;56560;50.692;12.844;2023-04-01T18:23:09;9.50;83.40
69382;DHT22;56560;50.692;12.844;2023-04-01T18:25:21;9.50;83.90
69382;DHT22;56560;50.692;12.844;2023-04-01T18:28:11;9.40;84.30
69382;DHT22;56560;50.692;12.844;2023-04-01T18:30:39;9.30;84.50
69382;DHT22;56560;50.692;12.844;2023-04-01T18:38:56;9.20;85.90
69382;DHT22;56560;50.692;12.844;2023-04-01T18:44:46;9.00;86.40
69382;DHT22;56560;50.692;12.844;2023-04-01T18:52:58;8.90;87.00
69382;DHT22;56560;50.692;12.844;2023-04-01T19:00:39;8.80;86.30
69382;DHT22;56560;50.692;12.844;2023-04-01T19:03:40;8.80;86.20
69382;DHT22;56560;50.692;12.844;2023-04-01T19:06:20;8.80;86.50
69382;DHT22;56560;50.692;12.844;2023-04-01T19:08:47;8.80;86.50
69382;DHT22;56560;50.692;12.844;2023-04-01T19:17:50;8.80;86.50
69382;DHT22;56560;50.692;12.844;2023-04-01T19:20:29;8.80;86.30
69382;DHT22;56560;50.692;12.844;2023-04-01T19:23:25;8.80;86.40
69382;DHT22;56560;50.692;12.844;2023-04-01T19:25:57;8.70;86.70
69382;DHT22;56560;50.692;12.844;2023-04-01T19:37:09;8.70;87.20
69382;DHT22;56560;50.692;12.844;2023-04-01T19:40:41;8.80;86.80
69382;DHT22;56560;50.692;12.844;2023-04-01T19:45:46;9.00;86.30
69382;DHT22;56560;50.692;12.844;2023-04-01T19:53:54;9.20;86.10
69382;DHT22;56560;50.692;12.844;2023-04-01T19:56:23;9.20;85.60
69382;DHT22;56560;50.692;12.844;2023-04-01T19:59:05;9.20;85.60
69382;DHT22;56560;50.692;12.844;2023-04-01T20:04:32;9.30;85.50
69382;DHT22;56560;50.692;12.844;2023-04-01T20:07:10;9.40;85.30
69382;DHT22;56560;50.692;12.844;2023-04-01T20:15:36;9.40;85.20
69382;DHT22;56560;50.692;12.844;2023-04-01T20:18:18;9.40;85.40
69382;DHT22;56560;50.692;12.844;2023-04-01T20:20:57;9.40;85.40
69382;DHT22;56560;50.692;12.844;2023-04-01T20:26:33;9.40;85.50
69382;DHT22;56560;50.692;12.844;2023-04-01T20:31:44;9.40;85.80
69382;DHT22;56560;50.692;12.844;2023-04-01T20:37:07;9.40;86.00
69382;DHT22;56560;50.692;12.844;2023-04-01T20:40:17;9.40;85.80
69382;DHT22;56560;50.692;12.844;2023-04-01T20:48:37;9.20;87.30
69382;DHT22;56560;50.692;12.844;2023-04-01T20:51:38;9.20;87.80
69382;DHT22;56560;50.692;12.844;2023-04-01T20:54:24;9.20;87.70
69382;DHT22;56560;50.692;12.844;2023-04-01T20:59:55;9.20;87.20
69382;DHT22;56560;50.692;12.844;2023-04-01T21:27:33;9.40;87.10
69382;DHT22;56560;50.692;12.844;2023-04-01T21:35:49;9.30;87.70
69382;DHT22;56560;50.692;12.844;2023-04-01T21:38:30;9.40;87.80
69382;DHT22;56560;50.692;12.844;2023-04-01T21:41:22;9.40;87.70
69382;DHT22;56560;50.692;12.844;2023-04-01T22:16:29;9.30;87.00
69382;DHT22;56560;50.692;12.844;2023-04-01T22:26:50;9.20;85.30
69382;DHT22;56560;50.692;12.844;2023-04-01T22:43:05;9.00;86.30
69382;DHT22;56560;50.692;12.844;2023-04-01T22:45:52;8.90;86.80
69382;DHT22;56560;50.692;12.844;2023-04-01T22:48:31;8.80;86.70
69382;DHT22;56560;50.692;12.844;2023-04-01T22:51:22;8.80;87.50
69382;DHT22;56560;50.692;12.844;2023-04-01T22:56:28;8.70;87.70
69382;DHT22;56560;50.692;12.844;2023-04-01T22:59:08;8.70;87.70
69382;DHT22;56560;50.692;12.844;2023-04-01T23:01:41;8.70;88.00
69382;DHT22;56560;50.692;12.844;2023-04-01T23:04:10;8.70;88.40
69382;DHT22;56560;50.692;12.844;2023-04-01T23:06:44;8.70;88.40
69382;DHT22;56560;50.692;12.844;2023-04-01T23:09:19;8.70;88.10
69382;DHT22;56560;50.692;12.844;2023-04-01T23:12:10;8.70;88.00
69382;DHT22;56560;50.692;12.844;2023-04-01T23:14:50;8.70;87.90
69382;DHT22;56560;50.692;12.844;2023-04-01T23:17:22;8.70;87.70
69382;DHT22;56560;50.692;12.844;2023-04-01T23:23:01;8.60;87.90
69382;DHT22;56560;50.692;12.844;2023-04-01T23:26:00;8.60;87.40
69382;DHT22;56560;50.692;12.844;2023-04-01T23:28:40;8.50;87.90
69382;DHT22;56560;50.692;12.844;2023-04-01T23:34:20;8.50;88.70
69382;DHT22;56560;50.692;12.844;2023-04-01T23:36:48;8.50;88.40
69382;DHT22;56560;50.692;12.844;2023-04-01T23:39:22;8.60;88.10
69382;DHT22;56560;50.692;12.844;2023-04-01T23:41:50;8.60;87.90
69382;DHT22;56560;50.692;12.844;2023-04-01T23:44:16;8.60;88.10
69382;DHT22;56560;50.692;12.844;2023-04-01T23:46:44;8.70;87.90
69382;DHT22;56560;50.692;12.844;2023-04-01T23:49:39;8.70;87.40
69382;DHT22;56560;50.692;12.844;2023-04-01T23:52:35;8.80;87.20
69382;DHT22;56560;50.692;12.844;2023-04-01T23:55:18;8.80;87.30
